Las Lenas/Los Molles, Argentina
Current Conditions -  °F | °C
As of 3:00 AM on Wednesday 26 Nov 2014 (Local Time) from SCIC Reporting Station
Clear Clear  
Wind Chill: 46°   Ceiling: Unl
Heat Index: 48°   Visibility: 6mi
Dew Point: 43°   Wind: 5mph
Humidity: 82%   Direction: 80°E
Pressure: 30.03"   Gusts: NA
Location:  34.97°S, 68.65°W
Report Text: SCIC 260600Z AUTO 08004KT 9999 NCD 09/06 Q1017
Loading
Personal Weather Stations






























Interactive Weather Map New forecast layout! Learn more

10-Day Weather Forecast

Advertisements
Track Severe Weather on mobile